.
WxDataArchive / Data Records for 2014-06-08
2014-06-07 June 2014 2014-06-09

Data Records for Sunday, 08 June 2014

Time	Temp	Chill	HIndex	Humid	Dewpt	 Wind 	HiWind	WindDir	Rain 	Barom
-----	----	-----	------	-----	-----	------	------	-------	-----	-----
00:00	68.8	68.8	68.8	57	52.9	0	0	---	0.00	29.807 
00:05	68.8	68.8	68.8	60	54.3	0	0	---	0.00	29.807 
00:10	68.6	68.6	68.6	58	53.2	0	0	---	0.00	29.807 
00:15	68.4	68.4	68.4	59	53.5	0	0	---	0.00	29.803 
00:20	68.4	68.4	68.4	60	54.0	0	0	---	0.00	29.803 
00:25	68.4	68.4	68.4	60	54.0	0	1	158	0.00	29.803 
00:30	68.6	68.6	68.6	59	53.7	0	1	158	0.00	29.796 
00:35	68.8	68.8	68.8	59	53.9	0	1	158	0.00	29.796 
00:40	68.9	68.9	68.9	58	53.5	0	0	---	0.00	29.796 
00:45	68.8	68.8	68.8	59	53.9	0	0	---	0.00	29.792 
00:50	68.8	68.8	68.8	59	53.9	0	0	---	0.00	29.792 
00:55	68.6	68.6	68.6	60	54.1	0	0	---	0.00	29.792 
01:00	68.6	68.6	68.6	61	54.6	0	0	---	0.00	29.784 
01:05	68.4	68.4	68.4	62	54.9	0	0	---	0.00	29.784 
01:10	68.6	68.6	68.6	61	54.6	0	1	158	0.00	29.784 
01:15	68.8	68.8	68.8	61	54.8	0	1	158	0.00	29.774 
01:20	68.9	68.9	68.9	60	54.4	0	2	158	0.00	29.774 
01:25	68.9	68.9	68.9	61	54.9	0	1	158	0.00	29.774 
01:30	68.9	68.9	68.9	62	55.3	0	1	158	0.00	29.774 
01:35	68.9	68.9	68.9	62	55.3	0	1	158	0.00	29.774 
01:40	68.8	68.8	68.8	62	55.2	0	2	158	0.00	29.774 
01:45	68.8	68.8	68.8	63	55.7	0	1	158	0.00	29.768 
01:50	68.6	68.6	68.6	63	55.5	0	1	158	0.00	29.768 
01:55	68.6	68.6	68.6	63	55.5	0	2	158	0.00	29.768 
02:00	68.4	68.4	68.4	63	55.3	0	1	158	0.00	29.758 
02:05	68.4	68.4	68.4	63	55.3	0	1	158	0.00	29.758 
02:10	68.4	68.4	68.4	63	55.3	0	1	158	0.00	29.758 
02:15	68.4	68.4	68.4	63	55.3	0	1	158	0.00	29.760 
02:20	68.4	68.4	68.4	64	55.7	0	1	158	0.00	29.760 
02:25	68.4	68.4	68.4	62	54.9	0	1	158	0.00	29.760 
02:30	68.4	68.4	68.4	62	54.9	0	1	158	0.00	29.757 
02:35	68.4	68.4	68.4	62	54.9	0	1	158	0.00	29.757 
02:40	68.6	68.6	68.6	62	55.0	0	1	158	0.00	29.757 
02:45	68.6	68.6	68.6	62	55.0	0	2	158	0.00	29.744 
02:50	68.6	68.6	68.6	62	55.0	0	2	158	0.00	29.744 
02:55	68.6	68.6	68.6	62	55.0	0	4	90	0.00	29.744 
03:00	68.6	68.6	68.6	62	55.0	0	2	90	0.00	29.736 
03:05	68.6	68.6	68.6	62	55.0	0	3	90	0.00	29.736 
03:10	68.4	68.4	68.4	63	55.3	0	2	90	0.00	29.736 
03:15	68.4	68.4	68.4	65	56.2	0	2	90	0.00	29.727 
03:20	68.1	68.1	68.1	67	56.7	0	2	90	0.00	29.727 
03:25	67.8	67.8	67.8	69	57.2	0	1	90	0.00	29.727 
03:30	67.3	67.3	67.3	72	58.0	0	0	---	0.00	29.725 
03:35	66.9	66.9	66.9	73	58.0	0	2	90	0.00	29.725 
03:40	66.4	66.4	66.4	75	58.2	0	0	---	0.00	29.725 
03:45	66.1	66.1	66.1	77	58.7	0	0	---	0.01	29.714 
03:50	65.6	65.6	65.6	78	58.5	0	0	---	0.00	29.714 
03:55	65.3	65.3	65.3	80	59.0	0	0	---	0.00	29.714 
04:00	64.8	64.8	64.8	81	58.8	0	0	---	0.00	29.718 
04:05	64.5	64.5	64.5	83	59.2	0	0	---	0.01	29.718 
04:10	64.3	64.3	64.3	84	59.4	0	0	---	0.01	29.718 
04:15	64.0	64.0	64.0	85	59.4	0	0	---	0.00	29.734 
04:20	63.9	63.9	63.9	86	59.6	0	0	---	0.02	29.734 
04:25	63.7	63.7	63.7	87	59.8	0	0	---	0.02	29.734 
04:30	63.7	63.7	63.7	88	60.1	0	0	---	0.02	29.739 
04:35	63.5	63.5	63.5	88	59.9	0	0	---	0.02	29.739 
04:40	63.4	63.4	63.4	89	60.1	0	0	---	0.01	29.739 
04:45	63.4	63.4	63.4	89	60.1	0	0	---	0.03	29.742 
04:50	63.2	63.2	63.2	90	60.2	0	0	---	0.01	29.742 
04:55	63.1	63.1	63.1	90	60.1	0	0	---	0.02	29.742 
05:00	63.1	63.1	63.1	91	60.4	0	1	90	0.02	29.746 
05:05	62.9	62.9	62.9	91	60.2	0	0	---	0.03	29.746 
05:10	62.9	62.9	62.9	91	60.2	0	0	---	0.02	29.746 
05:15	62.6	62.6	62.6	91	59.9	0	0	---	0.01	29.752 
05:20	62.4	62.4	62.4	92	60.0	0	0	---	0.02	29.752 
05:25	62.1	62.1	62.1	92	59.7	0	0	---	0.03	29.752 
05:30	62.0	62.0	62.0	92	59.6	0	0	---	0.04	29.769 
05:35	61.8	61.8	61.8	92	59.4	0	1	90	0.04	29.769 
05:40	61.6	61.6	61.6	92	59.2	0	1	90	0.01	29.769 
05:45	61.8	61.8	61.8	92	59.4	0	1	90	0.01	29.747 
05:50	61.6	61.6	61.6	93	59.6	0	3	90	0.00	29.747 
05:55	61.6	61.6	61.6	93	59.6	0	1	90	0.00	29.747 
06:00	61.5	61.5	61.5	93	59.5	0	2	90	0.00	29.749 
06:05	61.3	61.3	61.3	93	59.3	0	2	90	0.00	29.749 
06:10	61.2	61.2	61.2	93	59.2	1	3	90	0.00	29.749 
06:15	61.0	61.0	61.0	93	59.0	0	1	90	0.00	29.750 
06:20	61.0	61.0	61.0	93	59.0	0	1	90	0.00	29.750 
06:25	61.0	61.0	61.0	93	59.0	0	2	90	0.00	29.750 
06:30	61.0	61.0	61.0	93	59.0	0	1	90	0.00	29.772 
06:35	60.9	60.9	60.9	93	58.9	0	1	90	0.00	29.772 
06:40	60.9	60.9	60.9	93	58.9	0	1	90	0.00	29.772 
06:45	60.9	60.9	60.9	93	58.9	0	3	68	0.00	29.781 
06:50	60.9	60.9	60.9	94	59.2	0	1	68	0.01	29.781 
06:55	60.9	60.9	60.9	94	59.2	0	1	68	0.01	29.781 
07:00	60.9	60.9	60.9	94	59.2	0	1	68	0.00	29.769 
07:05	60.9	60.9	60.9	94	59.2	0	1	68	0.00	29.769 
07:10	60.7	60.7	60.7	94	59.0	0	2	68	0.00	29.769 
07:15	60.7	60.7	60.7	94	59.0	0	2	68	0.01	29.762 
07:20	60.5	60.5	60.5	94	58.8	0	3	90	0.00	29.762 
07:25	60.5	60.5	60.5	94	58.8	0	1	90	0.00	29.762 
07:30	60.4	60.4	60.4	94	58.7	0	2	90	0.00	29.774 
07:35	60.4	60.4	60.4	94	58.7	0	1	180	0.00	29.774 
07:40	60.4	60.4	60.4	94	58.7	0	2	180	0.00	29.774 
07:45	60.4	60.4	60.4	94	58.7	0	2	180	0.00	29.779 
07:50	60.4	60.4	60.4	94	58.7	1	3	270	0.00	29.779 
07:55	60.4	60.4	60.4	94	58.7	1	3	270	0.00	29.779 
08:00	60.4	60.4	60.4	94	58.7	1	4	270	0.00	29.788 
08:05	60.4	60.4	60.4	94	58.7	2	6	315	0.00	29.788 
08:10	60.4	60.4	60.4	94	58.7	0	3	315	0.00	29.788 
08:15	60.2	60.2	60.2	94	58.5	2	5	315	0.00	29.803 
08:20	60.2	60.2	60.2	94	58.5	1	5	90	0.00	29.803 
08:25	60.4	60.4	60.4	94	58.7	3	9	90	0.01	29.803 
08:30	60.2	60.2	60.2	94	58.5	4	11	90	0.01	29.729 
08:35	60.1	60.1	60.1	94	58.4	1	6	270	0.02	29.729 
08:40	59.9	59.9	59.9	94	58.2	1	4	292	0.01	29.729 
08:45	59.6	59.6	59.6	94	57.9	1	7	292	0.01	29.796 
08:50	59.5	59.5	59.5	94	57.8	1	6	270	0.00	29.796 
08:55	59.5	59.5	59.5	94	57.8	1	4	270	0.00	29.796 
09:00	59.3	59.3	59.3	94	57.6	1	5	270	0.00	29.809 
09:05	59.5	59.5	59.5	94	57.8	1	3	315	0.00	29.809 
09:10	59.5	59.5	59.5	94	57.8	1	4	315	0.00	29.809 
09:15	59.6	59.6	59.6	94	57.9	0	2	315	0.00	29.819 
09:20	59.6	59.6	59.6	94	57.9	1	4	315	0.00	29.819 
09:25	59.8	59.8	59.8	95	58.4	0	3	315	0.00	29.819 
09:30	59.9	59.9	59.9	94	58.2	1	4	292	0.00	29.820 
09:35	59.9	59.9	59.9	94	58.2	0	4	292	0.00	29.820 
09:40	60.1	60.1	60.1	94	58.4	0	1	292	0.00	29.820 
09:45	60.2	60.2	60.2	95	58.8	1	5	292	0.00	29.832 
09:50	60.2	60.2	60.2	94	58.5	0	2	315	0.00	29.832 
09:55	60.2	60.2	60.2	94	58.5	2	6	315	0.00	29.832 
10:00	60.2	60.2	60.2	94	58.5	1	4	225	0.01	29.820 
10:05	60.5	60.5	60.5	95	59.1	1	3	90	0.00	29.820 
10:10	60.9	60.9	60.9	95	59.5	1	3	135	0.01	29.820 
10:15	61.0	61.0	61.0	95	59.6	0	5	135	0.00	29.807 
10:20	61.5	61.5	61.5	95	60.1	1	3	68	0.00	29.807 
10:25	62.3	62.3	62.3	95	60.8	1	4	45	0.00	29.807 
10:30	62.4	62.4	62.4	94	60.6	1	4	112	0.00	29.808 
10:35	62.3	62.3	62.3	94	60.5	1	3	135	0.00	29.808 
10:40	62.1	62.1	62.1	94	60.3	0	3	202	0.00	29.808 
10:45	61.8	61.8	61.8	93	59.8	1	3	315	0.00	29.835 
10:50	61.8	61.8	61.8	93	59.8	1	4	315	0.00	29.835 
10:55	61.8	61.8	61.8	93	59.8	1	3	315	0.00	29.835 
11:00	61.8	61.8	61.8	93	59.8	1	5	315	0.00	29.839 
11:05	62.0	62.0	62.0	93	59.9	0	2	338	0.00	29.839 
11:10	62.3	62.3	62.3	93	60.2	0	2	338	0.00	29.839 
11:15	62.3	62.3	62.3	93	60.2	1	3	338	0.00	29.845 
11:20	62.4	62.4	62.4	92	60.0	2	6	315	0.00	29.845 
11:25	62.7	62.7	62.7	92	60.3	2	4	315	0.00	29.845 
11:30	63.5	63.5	63.5	92	61.1	2	5	270	0.00	29.839 
11:35	64.7	64.7	64.7	92	62.3	1	4	315	0.00	29.839 
11:40	65.0	65.0	65.0	90	62.0	2	8	338	0.00	29.839 
11:45	65.6	65.6	65.6	88	61.9	2	6	0	0.00	29.831 
11:50	66.1	66.1	66.1	84	61.1	2	7	315	0.00	29.831 
11:55	66.6	66.6	66.6	83	61.3	2	5	338	0.00	29.831 
12:00	66.8	66.8	66.8	79	60.1	3	10	338	0.00	29.834 
12:05	67.4	67.4	67.4	78	60.3	2	6	338	0.00	29.834 
12:10	67.9	67.9	67.9	78	60.8	2	6	315	0.00	29.834 
12:15	68.6	68.6	68.6	75	60.3	2	7	292	0.00	29.842 
12:20	69.1	69.1	69.1	74	60.5	2	7	270	0.00	29.842 
12:25	69.3	69.3	69.3	71	59.5	3	7	315	0.00	29.842 
12:30	69.1	69.1	69.1	73	60.1	2	5	315	0.00	29.841 
12:35	69.8	69.8	69.8	73	60.7	2	4	292	0.00	29.841 
12:40	70.3	70.3	70.3	72	60.8	2	7	45	0.00	29.841 
12:45	70.6	70.6	70.6	66	58.7	2	6	22	0.00	29.846 
12:50	70.4	70.4	70.4	67	58.9	2	9	338	0.00	29.846 
12:55	71.1	71.1	71.1	68	60.0	2	9	112	0.00	29.846 
13:00	71.6	71.6	71.6	68	60.5	2	6	112	0.00	29.843 
13:05	72.1	72.1	72.1	65	59.7	2	6	112	0.00	29.843 
13:10	71.8	71.8	71.8	67	60.2	2	7	202	0.00	29.843 
13:15	72.0	72.0	72.0	68	60.8	1	5	292	0.00	29.843 
13:20	72.1	72.1	72.1	65	59.7	1	4	270	0.00	29.843 
13:25	72.3	72.3	72.3	61	58.1	2	7	315	0.00	29.843 
13:30	72.5	72.5	72.5	61	58.3	3	8	135	0.00	29.850 
13:35	72.3	72.3	72.3	61	58.1	1	4	292	0.00	29.850 
13:40	72.7	72.7	72.7	60	58.0	2	6	112	0.00	29.850 
13:45	73.0	73.0	73.0	58	57.3	2	9	292	0.00	29.849 
13:50	73.3	73.3	73.3	60	58.6	2	7	22	0.00	29.849 
13:55	73.7	73.7	73.7	57	57.5	2	7	112	0.00	29.849 
14:00	73.9	73.9	73.9	57	57.7	2	6	135	0.00	29.859 
14:05	74.0	74.0	74.0	56	57.3	1	4	112	0.00	29.859 
14:10	74.4	74.4	74.4	57	58.2	1	4	112	0.00	29.859 
14:15	74.4	74.4	74.4	56	57.7	2	6	338	0.00	29.861 
14:20	74.6	74.6	74.6	55	57.3	1	4	292	0.00	29.861 
14:25	74.9	74.9	74.9	52	56.1	2	7	112	0.00	29.861 
14:30	74.7	74.7	74.7	52	55.9	2	7	112	0.00	29.860 
14:35	74.4	74.4	74.4	56	57.7	2	5	90	0.00	29.860 
14:40	74.7	74.7	74.7	53	56.4	2	7	112	0.00	29.860 
14:45	74.9	74.9	74.9	50	55.0	2	7	112	0.00	29.859 
14:50	75.1	75.1	77.6	54	57.3	2	5	112	0.00	29.859 
14:55	75.6	75.6	77.9	50	55.6	1	4	315	0.00	29.859 
15:00	75.8	75.8	78.0	50	55.8	2	6	112	0.00	29.863 
15:05	75.8	75.8	78.0	49	55.3	2	4	292	0.00	29.863 
15:10	75.6	75.6	77.9	50	55.6	2	4	292	0.00	29.863 
15:15	75.1	75.1	77.7	51	55.7	1	3	112	0.00	29.874 
15:20	74.9	74.9	74.9	51	55.5	1	5	112	0.00	29.874 
15:25	74.9	74.9	74.9	52	56.1	1	4	112	0.00	29.874 
15:30	74.6	74.6	74.6	50	54.7	2	4	112	0.00	29.876 
15:35	74.7	74.7	74.7	53	56.4	1	4	45	0.00	29.876 
15:40	75.1	75.1	77.7	51	55.7	1	4	315	0.00	29.876 
15:45	75.3	75.3	77.7	52	56.4	1	4	315	0.00	29.875 
15:50	75.3	75.3	77.7	53	57.0	1	4	315	0.00	29.875 
15:55	75.8	75.8	78.0	49	55.3	2	5	292	0.00	29.875 
16:00	76.1	76.1	78.1	50	56.1	2	5	338	0.00	29.876 
16:05	76.5	76.5	78.3	49	55.9	2	4	338	0.00	29.876 
16:10	76.3	76.3	78.1	46	54.0	1	5	292	0.00	29.876 
16:15	76.7	76.7	78.4	50	56.6	2	9	135	0.00	29.874 
16:20	76.1	76.1	78.0	46	53.8	1	6	45	0.00	29.874 
16:25	76.1	76.1	78.1	48	55.0	1	3	270	0.00	29.874 
16:30	76.7	76.7	78.3	46	54.3	1	3	270	0.00	29.874 
16:35	76.8	76.8	78.3	44	53.2	1	4	270	0.00	29.874 
16:40	76.8	76.8	78.3	43	52.6	1	6	292	0.00	29.874 
16:45	77.2	77.2	78.5	45	54.2	0	2	315	0.00	29.876 
16:50	77.0	77.0	78.3	42	52.1	0	1	315	0.00	29.876 
16:55	76.8	76.8	78.3	43	52.6	0	5	315	0.00	29.876 
17:00	77.0	77.0	78.4	43	52.8	1	5	315	0.00	29.876 
17:05	77.4	77.4	78.6	43	53.1	1	6	90	0.00	29.876 
17:10	77.7	77.7	78.7	43	53.4	1	3	270	0.00	29.876 
17:15	78.1	78.1	79.0	44	54.4	1	3	135	0.00	29.876 
17:20	77.9	77.9	78.7	40	51.6	2	5	292	0.00	29.876 
17:25	77.4	77.4	78.5	41	51.8	2	4	315	0.00	29.876 
17:30	77.4	77.4	78.4	39	50.5	2	5	315	0.00	29.877 
17:35	77.6	77.6	78.5	39	50.7	1	4	315	0.00	29.877 
17:40	77.6	77.6	78.5	40	51.3	3	6	315	0.00	29.877 
17:45	77.4	77.4	78.5	42	52.5	1	3	315	0.00	29.879 
17:50	77.6	77.6	78.5	40	51.3	1	2	315	0.00	29.879 
17:55	77.4	77.4	78.5	41	51.8	1	3	315	0.00	29.879 
18:00	77.4	77.4	78.5	41	51.8	0	2	315	0.00	29.878 
18:05	77.0	77.0	78.2	40	50.8	1	3	315	0.00	29.878 
18:10	76.8	76.8	78.2	42	51.9	1	4	315	0.00	29.878 
18:15	76.5	76.5	78.1	42	51.7	1	4	315	0.00	29.880 
18:20	76.3	76.3	77.9	39	49.5	1	4	292	0.00	29.880 
18:25	76.3	76.3	78.0	41	50.8	0	3	315	0.00	29.880 
18:30	76.1	76.1	77.9	40	50.0	1	4	45	0.00	29.881 
18:35	76.1	76.1	77.8	39	49.3	2	5	292	0.00	29.881 
18:40	76.1	76.1	77.8	39	49.3	1	4	315	0.00	29.881 
18:45	76.0	76.0	77.8	39	49.2	1	4	292	0.00	29.883 
18:50	76.0	76.0	77.8	39	49.2	2	5	315	0.00	29.883 
18:55	75.8	75.8	77.8	41	50.4	0	3	292	0.00	29.883 
19:00	75.6	75.6	77.7	40	49.6	1	3	292	0.00	29.892 
19:05	75.6	75.6	77.7	42	50.9	1	4	292	0.00	29.892 
19:10	75.6	75.6	77.7	41	50.2	0	2	292	0.00	29.892 
19:15	75.8	75.8	77.7	40	49.7	1	4	292	0.00	29.895 
19:20	75.4	75.4	77.7	42	50.7	1	3	292	0.00	29.895 
19:25	75.3	75.3	77.6	42	50.6	1	3	292	0.00	29.895 
19:30	75.3	75.3	77.7	44	51.9	0	1	292	0.00	29.897 
19:35	75.1	75.1	77.6	44	51.7	0	2	292	0.00	29.897 
19:40	75.1	75.1	77.6	44	51.7	0	2	292	0.00	29.897 
19:45	74.7	74.7	74.7	44	51.3	0	1	292	0.00	29.899 
19:50	74.6	74.6	74.6	46	52.4	0	1	292	0.00	29.899 
19:55	74.4	74.4	74.4	46	52.3	0	1	292	0.00	29.899 
20:00	74.0	74.0	74.0	46	51.9	0	0	---	0.00	29.899 
20:05	73.9	73.9	73.9	47	52.4	0	1	292	0.00	29.899 
20:10	73.7	73.7	73.7	47	52.2	0	0	---	0.00	29.899 
20:15	73.5	73.5	73.5	48	52.6	0	0	---	0.00	29.904 
20:20	73.3	73.3	73.3	49	53.0	0	0	---	0.00	29.904 
20:25	73.2	73.2	73.2	49	52.9	0	0	---	0.00	29.904 
20:30	73.0	73.0	73.0	50	53.2	0	0	---	0.00	29.908 
20:35	72.7	72.7	72.7	51	53.5	0	0	---	0.00	29.908 
20:40	72.5	72.5	72.5	51	53.3	0	0	---	0.00	29.908 
20:45	72.3	72.3	72.3	51	53.1	0	0	---	0.00	29.915 
20:50	72.0	72.0	72.0	52	53.4	0	0	---	0.00	29.915 
20:55	71.6	71.6	71.6	52	53.0	0	0	---	0.00	29.915 
21:00	71.3	71.3	71.3	53	53.3	0	0	---	0.00	29.918 
21:05	71.1	71.1	71.1	54	53.6	0	0	---	0.00	29.918 
21:10	70.8	70.8	70.8	55	53.8	0	0	---	0.00	29.918 
21:15	70.3	70.3	70.3	56	53.8	0	0	---	0.00	29.927 
21:20	69.9	69.9	69.9	58	54.4	0	0	---	0.00	29.927 
21:25	69.6	69.6	69.6	59	54.6	0	0	---	0.00	29.927 
21:30	69.1	69.1	69.1	60	54.6	0	0	---	0.00	29.934 
21:35	68.8	68.8	68.8	62	55.2	0	0	---	0.00	29.934 
21:40	68.4	68.4	68.4	62	54.9	0	0	---	0.00	29.934 
21:45	68.1	68.1	68.1	63	55.0	0	0	---	0.00	29.937 
21:50	67.6	67.6	67.6	63	54.5	0	0	---	0.00	29.937 
21:55	67.3	67.3	67.3	63	54.3	0	0	---	0.00	29.937 
22:00	67.1	67.1	67.1	65	54.9	0	0	---	0.00	29.940 
22:05	66.8	66.8	66.8	66	55.1	0	0	---	0.00	29.940 
22:10	66.8	66.8	66.8	67	55.5	0	1	292	0.00	29.940 
22:15	67.1	67.1	67.1	68	56.2	0	1	292	0.00	29.946 
22:20	67.4	67.4	67.4	70	57.3	0	2	292	0.00	29.946 
22:25	67.4	67.4	67.4	72	58.1	0	1	292	0.00	29.946 
22:30	67.4	67.4	67.4	74	58.8	0	1	292	0.00	29.941 
22:35	67.3	67.3	67.3	75	59.1	0	1	292	0.00	29.941 
22:40	67.3	67.3	67.3	76	59.5	0	1	292	0.00	29.941 
22:45	67.1	67.1	67.1	77	59.6	0	1	292	0.00	29.937 
22:50	67.1	67.1	67.1	77	59.6	0	1	292	0.00	29.937 
22:55	66.9	66.9	66.9	78	59.8	0	1	292	0.00	29.937 
23:00	66.9	66.9	66.9	78	59.8	0	0	---	0.00	29.948 
23:05	66.8	66.8	66.8	78	59.7	0	0	---	0.00	29.948 
23:10	66.6	66.6	66.6	79	59.9	0	1	292	0.00	29.948 
23:15	66.4	66.4	66.4	79	59.7	0	0	---	0.00	29.946 
23:20	66.3	66.3	66.3	80	59.9	0	0	---	0.00	29.946 
23:25	66.1	66.1	66.1	80	59.7	0	0	---	0.00	29.946 
23:30	66.1	66.1	66.1	80	59.7	0	0	---	0.00	29.947 
23:35	66.0	66.0	66.0	81	60.0	0	0	---	0.00	29.947 
23:40	65.8	65.8	65.8	81	59.8	0	0	---	0.00	29.947 
23:45	65.6	65.6	65.6	81	59.6	0	0	---	0.00	29.947 
23:50	65.6	65.6	65.6	81	59.6	0	0	---	0.00	29.947 
23:55	65.5	65.5	65.5	82	59.9	0	0	---	0.00	29.947 

CoCoRaHS
IN-AL-39
A2 Web Hosting
Creative Commons License
GoDaddy
search engine by freefind advanced

loaded 2018-11-15 15:41:37 • last modified 2010-11-18 10:43:29
Privacy PolicyDisclaimer
• wx.awcolley.com is powered by PmWiki v.2002016 •
• all content (unless otherwise noted) © 2018 A W Colley